Latest Coastal Weather Observations for Broome

IDW60701

Issued at 12:42 am WST Saturday 5 September 2015 (issued every 10 minutes, with the page automatically refreshed every 10 minutes)

About coastal observations | Map of coastal stations | Coastal observations for WA | Marine services | Other Formats
Station Details ID: 003003 Name: BROOME AIRPORT Lat: -17.95 Lon: 122.24 Height: 7.42 m
Data from the previous 72 hours. | See also: Recent months at Broome
Date/Time
WST
Temp

°C
Wind Pressure Rain
since 9am
mm
Weather Cloud Vis
km
Sea
Height
m
Swell
Dir
 
Speed
knots
Gust
knots
hPa Trend Height
m
Period
s
Dir
05/12:30am 22.4 SSW 5 7 1015.8 - 0.0 - - 10 - - - -
05/12:00am 18.6 CALM 0 0 1016.3 - 0.0 - - 10 - - - -
 
Date/Time
WST
Temp

°C
Wind Pressure Rain
since 9am
mm
Weather Cloud Vis
km
Sea
Height
m
Swell
Dir
 
Speed
knots
Gust
knots
hPa Trend Height
m
Period
s
Dir
04/11:30pm 18.9 CALM 0 0 1016.7 - 0.0 - - 10 - - - -
04/11:00pm 19.0 CALM 0 0 1016.9 - 0.0 - - 10 - - - -
04/10:30pm 19.8 N 4 4 1016.9 - 0.0 - - 10 - - - -
04/10:00pm 20.1 NNE 1 3 1017.0 - 0.0 - - 10 - - - -
04/09:30pm 20.1 N 3 5 1017.0 - 0.0 - - 10 - - - -
04/09:00pm 21.9 CALM 0 0 1016.7 F 0.0 Fine Clear 25 - - - -
04/08:30pm 23.9 WSW 4 6 1016.6 - 0.0 - - 10 - - - -
04/08:00pm 24.3 WSW 5 7 1016.5 - 0.0 - - 10 - - - -
04/07:30pm 24.4 WSW 6 9 1016.2 - 0.0 - - 10 - - - -
04/07:00pm 24.6 WSW 8 11 1015.9 - 0.0 - - 10 - - - -
04/06:30pm 24.9 SW 8 11 1015.7 - 0.0 - - 10 - - - -
04/06:00pm 25.5 WSW 10 15 1015.2 F 0.0 Smoke Clear 40 - - - -
04/05:30pm 26.1 WSW 10 14 1015.0 - 0.0 - - 10 - - - -
04/05:00pm 26.9 WSW 13 17 1014.7 - 0.0 - - 10 - - - -
04/04:30pm 27.5 WSW 12 16 1014.7 - 0.0 - - 10 - - - -
04/04:00pm 28.0 WSW 12 16 1014.7 - 0.0 - - 10 - - - -
04/03:30pm 28.8 WSW 10 14 1014.6 - 0.0 - - 10 - - - -
04/03:00pm 29.1 WSW 12 15 1014.5 R 0.0 Fine Clear 40 - - - -
04/02:30pm 28.9 W 11 14 1014.7 - 0.0 - - 10 - - - -
04/02:00pm 29.0 WSW 11 14 1014.8 - 0.0 - - 10 - - - -
04/01:30pm 30.1 W 10 13 1015.0 - 0.0 - - 10 - - - -
04/01:00pm 29.7 W 10 13 1015.4 - 0.0 - - 10 - - - -
04/12:30pm 31.9 SW 8 13 1015.7 - 0.0 - - 10 - - - -
04/12:00pm 32.2 S 5 7 1016.1 F 0.0 Fine Mostly clear 40 - - - -
04/11:30am 30.4 S 6 8 1016.7 - 0.0 - - 10 - - - -
04/11:00am 28.6 SSE 6 9 1017.2 - 0.0 - - 10 - - - -
04/10:30am 26.6 SSE 5 8 1017.6 - 0.0 - - 10 - - - -
04/10:00am 25.4 SSE 6 7 1018.0 - 0.0 - - 10 - - - -
04/09:30am 23.3 S 6 7 1018.3 - 0.0 - - 10 - - - -
04/09:00am 22.8 SSE 5 7 1018.4 R 0.0 Fine Mostly clear 40 - - - -
04/08:30am 21.7 SE 5 7 1018.6 - 0.0 - - 10 - - - -
04/08:00am 20.9 SE 9 12 1018.4 - 0.0 - - 10 - - - -
04/07:30am 20.3 SE 7 10 1018.2 - 0.0 - Mostly clear 10 - - - -
04/07:00am 20.2 E 7 9 1018.0 - 0.0 - Mostly clear 10 - - - -
04/06:30am 20.7 SE 10 14 1017.4 - 0.0 - Mostly clear 10 - - - -
04/06:00am 20.6 SSE 8 12 1016.7 F 0.0 Haze Mostly clear 30 - - - -
04/05:30am 20.7 SSE 9 13 1016.6 - 0.0 - Mostly clear 10 - - - -
04/05:00am 21.0 SE 7 10 1016.1 - 0.0 - - 10 - - - -
04/04:30am 21.0 S 5 7 1015.9 - 0.0 - - 10 - - - -
04/04:00am 21.5 SSE 6 10 1015.8 - 0.0 - - 10 - - - -
04/03:30am 21.8 SSE 5 7 1015.6 - 0.0 - - 10 - - - -
04/03:00am 21.1 SSW 5 6 1015.7 - 0.0 - - 10 - - - -
04/02:30am 20.5 SSW 4 4 1016.1 - 0.0 - - 10 - - - -
04/02:00am 21.0 SW 5 7 1016.2 - 0.0 - - 10 - - - -
04/01:30am 19.8 SW 3 5 1016.5 - 0.0 - - 10 - - - -
04/01:00am 17.7 CALM 0 0 1016.8 - 0.0 - - 10 - - - -
04/12:30am 17.7 SW 1 3 1017.1 - 0.0 - - 10 - - - -
04/12:00am 20.6 SW 4 5 1017.4 - 0.0 - - 10 - - - -
 
Date/Time
WST
Temp

°C
Wind Pressure Rain
since 9am
mm
Weather Cloud Vis
km
Sea
Height
m
Swell
Dir
 
Speed
knots
Gust
knots
hPa Trend Height
m
Period
s
Dir
03/11:30pm 19.0 CALM 0 0 1017.8 - 0.0 - - 10 - - - -
03/11:00pm 21.1 SW 4 5 1017.9 - 0.0 - - 10 - - - -
03/10:30pm 20.6 CALM 0 0 1018.1 - 0.0 - - 10 - - - -
03/10:00pm 22.1 WSW 4 5 1018.1 - 0.0 - - 10 - - - -
03/09:30pm 22.5 SW 5 6 1018.0 - 0.0 - - 10 - - - -
03/09:00pm 22.8 SW 6 8 1017.9 R 0.0 Fine Clear 40 - - - -
03/08:30pm 23.2 SW 6 8 1017.9 - 0.0 - - 10 - - - -
03/08:00pm 23.4 SW 6 7 1017.7 - 0.0 - - 10 - - - -
03/07:30pm 23.8 WSW 7 10 1017.4 - 0.0 - - 10 - - - -
03/07:00pm 24.0 WSW 8 13 1017.0 - 0.0 - - 10 - - - -
03/06:30pm 24.2 WSW 8 11 1016.6 - 0.0 - - 10 - - - -
03/06:00pm 24.4 W 8 12 1016.2 R 0.0 Smoke Mostly clear 40 - - - -
03/05:30pm 25.1 W 10 13 1015.9 - 0.0 - - 10 - - - -
03/05:00pm 25.7 W 12 17 1015.6 - 0.0 - - 10 - - - -
03/04:30pm 26.4 W 11 15 1015.4 - 0.0 - Mostly clear 10 - - - -
03/04:00pm 27.1 W 13 17 1015.1 - 0.0 - - 10 - - - -
03/03:30pm 27.5 W 12 16 1014.9 - 0.0 - - 10 - - - -
03/03:00pm 27.6 W 13 18 1014.6 R 0.0 Smoke Mostly clear 40 - - - -
03/02:30pm 28.4 W 14 18 1014.7 - 0.0 - - 10 - - - -
03/02:00pm 28.2 W 13 15 1014.8 - 0.0 - Mostly clear 10 - - - -
03/01:30pm 28.4 W 11 14 1015.0 - 0.0 - Mostly clear 10 - - - -
03/01:00pm 28.5 W 10 13 1015.3 - 0.0 - - 10 - - - -
03/12:30pm 28.4 WSW 10 12 1015.6 - 0.0 - - 10 - - - -
03/12:00pm 28.6 WSW 6 11 1015.8 F 0.0 Fine Clear 40 - - - -
03/11:30am 27.8 S 5 8 1016.4 - 0.0 - - 10 - - - -
03/11:00am 26.9 SSE 6 9 1017.0 - 0.0 - - 10 - - - -
03/10:30am 26.1 S 7 10 1017.4 - 0.0 - - 10 - - - -
03/10:00am 24.7 SSE 7 10 1017.8 - 0.0 - - 10 - - - -
03/09:30am 24.6 SSE 7 9 1018.0 - 0.0 - - 10 - - - -
03/09:00am 23.6 SSE 6 9 1018.0 F 0.0 Haze Mostly clear 30 - - - -
03/08:30am 23.5 SE 7 8 1018.1 - 0.0 - Mostly clear 10 - - - -
03/08:00am 22.1 ESE 5 7 1018.0 - 0.0 - Mostly clear 10 - - - -
03/07:30am 20.5 NE 1 4 1017.8 - 0.0 - Mostly clear 10 - - - -
03/07:00am 18.5 ENE 3 4 1017.8 - 0.0 - Mostly clear 10 - - - -
03/06:30am 16.8 NE 3 4 1017.6 - 0.0 - Mostly clear 10 - - - -
03/06:00am 15.7 NE 4 5 1017.2 R 0.0 Haze Mostly clear 30 - - - -
03/05:30am 16.5 NNE 5 5 1017.0 - 0.0 - Mostly clear 10 - - - -
03/05:00am 17.5 NE 4 5 1016.6 - 0.0 - Partly cloudy 10 - - - -
03/04:30am 16.8 CALM 0 0 1016.2 - 0.0 - Partly cloudy 10 - - - -
03/04:00am 16.7 CALM 0 0 1016.0 - 0.0 - - 10 - - - -
03/03:30am 16.7 CALM 0 0 1015.7 - 0.0 - - 10 - - - -
03/03:00am 17.3 CALM 0 0 1015.6 - 0.0 - Mostly clear 10 - - - -
03/02:30am 17.3 CALM 0 0 1015.8 - 0.0 - - 10 - - - -
03/02:00am 17.1 CALM 0 0 1015.9 - 0.0 - - 10 - - - -
03/01:30am 17.1 CALM 0 0 1016.1 - 0.0 - - 10 - - - -
03/01:00am 16.9 CALM 0 0 1016.0 - 0.0 - - 10 - - - -
03/12:30am 17.1 CALM 0 0 1016.3 - 0.0 - - 10 - - - -
03/12:00am 17.1 CALM 0 0 1016.5 - 0.0 - - 10 - - - -
 
Date/Time
WST
Temp

°C
Wind Pressure Rain
since 9am
mm
Weather Cloud Vis
km
Sea
Height
m
Swell
Dir
 
Speed
knots
Gust
knots
hPa Trend Height
m
Period
s
Dir
02/11:30pm 17.3 CALM 0 3 1016.8 - 0.0 - - 10 - - - -
02/11:00pm 17.5 CALM 0 0 1017.0 - 0.0 - - 10 - - - -
02/10:30pm 17.7 NNE 4 4 1017.1 - 0.0 - - 10 - - - -
02/10:00pm 18.5 NNE 5 6 1017.0 - 0.0 - - 10 - - - -
02/09:30pm 19.4 NNE 4 5 1017.0 - 0.0 - - 10 - - - -
02/09:00pm 22.4 NW 4 6 1016.8 R 0.0 Fine Clear 40 - - - -
02/08:30pm 23.0 NW 3 5 1016.8 - 0.0 - - 10 - - - -
02/08:00pm 23.5 WNW 6 10 1016.4 - 0.0 - - 10 - - - -
02/07:30pm 23.7 WNW 7 11 1016.1 - 0.0 - - 10 - - - -
02/07:00pm 23.7 WNW 7 10 1015.8 - 0.0 - - 10 - - - -
02/06:30pm 23.8 NW 7 11 1015.4 - 0.0 - Mostly clear 10 - - - -
02/06:00pm 24.1 NW 8 11 1015.0 R 0.0 Smoke Mostly clear 40 - - - -
02/05:30pm 24.6 NW 10 14 1014.8 - 0.0 - - 10 - - - -
02/05:00pm 25.3 NW 10 15 1014.6 - 0.0 - - 10 - - - -
02/04:30pm 25.7 NW 11 14 1014.3 - 0.0 - Mostly clear 10 - - - -
02/04:00pm 26.3 WNW 12 17 1014.4 - 0.0 - Mostly clear 10 - - - -
02/03:30pm 26.6 WNW 14 18 1014.0 - 0.0 - - 10 - - - -
02/03:00pm 26.6 NW 12 17 1013.7 R 0.0 Smoke Mostly clear 40 - - - -
02/02:30pm 26.6 WNW 12 17 1013.9 - 0.0 - Mostly clear 10 - - - -
02/02:00pm 27.2 NW 13 18 1013.9 - 0.0 - Mostly clear 10 - - - -
02/01:30pm 26.7 WNW 13 18 1014.2 - 0.0 - Mostly clear 10 - - - -
02/01:00pm 26.6 WNW 12 16 1014.5 - 0.0 - Mostly clear 10 - - - -
02/12:30pm 27.0 W 11 15 1014.6 - 0.0 - Mostly clear 10 - - - -
02/12:00pm 27.0 W 11 14 1015.0 R 0.0 Fine Mostly clear 40 - - - -
02/11:30am 27.3 WSW 9 11 1015.8 - 0.0 - - 10 - - - -
02/11:00am 26.5 S 6 9 1016.2 - 0.0 - Mostly clear 10 - - - -
02/10:30am 25.9 S 6 11 1016.7 - 0.0 - Mostly clear 10 - - - -
02/10:00am 25.7 SE 7 10 1016.8 - 0.0 - Mostly clear 10 - - - -
02/09:30am 25.1 SE 7 9 1016.8 - 0.0 - Mostly clear 10 - - - -
02/09:00am 24.1 SE 8 10 1016.6 S 0.0 Fine Mostly clear 40 - - - -
02/08:30am 22.8 SE 7 9 1016.6 - 0.0 - Mostly clear 10 - - - -
02/08:00am 23.0 ENE 2 5 1016.3 - 0.0 - Mostly clear 10 - - - -
02/07:30am 20.9 NE 2 4 1016.0 - 0.0 - Mostly clear 10 - - - -
02/07:00am 18.2 NNE 4 4 1015.7 - 0.0 - - 10 - - - -
02/06:30am 16.6 NNE 3 4 1015.6 - 0.0 - - 10 - - - -
02/06:00am 16.0 NNE 3 4 1015.3 F 0.0 Haze Mostly clear 30 - - - -
02/05:30am 16.1 NE 5 5 1014.9 - 0.0 - - 10 - - - -
02/05:00am 17.0 NW 1 4 1014.5 - 0.0 - - 10 - - - -
02/04:30am 17.2 CALM 0 0 1014.4 - 0.0 - - 10 - - - -
02/04:00am 17.7 CALM 0 0 1014.5 - 0.0 - - 10 - - - -
02/03:30am 19.9 WSW 1 3 1014.6 - 0.0 - - 10 - - - -
02/03:00am 22.1 WSW 4 5 1014.6 - 0.0 - - 10 - - - -
02/02:30am 22.8 W 6 9 1014.5 - 0.0 - - 10 - - - -
02/02:00am 23.2 W 8 9 1014.7 - 0.0 - - 10 - - - -
02/01:30am 23.3 W 8 12 1014.6 - 0.0 - - 10 - - - -
02/01:00am 23.5 W 8 12 1014.8 - 0.0 - - 10 - - - -

Other Formats:

Comma delimited format used in spreadsheet applications
http://www.bom.gov.au/fwo/IDW60701/IDW60701.94203.axf

JavaScript Object Notation format (JSON) in row-major order
http://www.bom.gov.au/fwo/IDW60701/IDW60701.94203.json